sensor_id;sensor_type;location;lat;lon;timestamp;temperature;humidity
75161;DHT22;67232;50.096;8.716;2023-03-31T00:01:45;14.20;77.60
75161;DHT22;67232;50.096;8.716;2023-03-31T00:04:13;14.10;77.80
75161;DHT22;67232;50.096;8.716;2023-03-31T00:06:41;14.20;77.70
75161;DHT22;67232;50.096;8.716;2023-03-31T00:09:13;14.10;77.80
75161;DHT22;67232;50.096;8.716;2023-03-31T00:11:43;14.20;78.00
75161;DHT22;67232;50.096;8.716;2023-03-31T00:14:10;14.40;77.80
75161;DHT22;67232;50.096;8.716;2023-03-31T00:16:38;14.30;78.10
75161;DHT22;67232;50.096;8.716;2023-03-31T00:19:05;14.30;78.30
75161;DHT22;67232;50.096;8.716;2023-03-31T00:21:34;14.40;78.20
75161;DHT22;67232;50.096;8.716;2023-03-31T00:24:11;14.50;78.30
75161;DHT22;67232;50.096;8.716;2023-03-31T00:26:37;14.50;78.40
75161;DHT22;67232;50.096;8.716;2023-03-31T00:29:05;14.40;79.00
75161;DHT22;67232;50.096;8.716;2023-03-31T00:31:36;14.20;78.90
75161;DHT22;67232;50.096;8.716;2023-03-31T00:34:06;14.10;79.60
75161;DHT22;67232;50.096;8.716;2023-03-31T00:36:31;14.20;79.80
75161;DHT22;67232;50.096;8.716;2023-03-31T00:39:03;14.20;80.00
75161;DHT22;67232;50.096;8.716;2023-03-31T00:41:31;14.40;80.00
75161;DHT22;67232;50.096;8.716;2023-03-31T00:49:20;14.20;80.70
75161;DHT22;67232;50.096;8.716;2023-03-31T00:51:49;14.10;80.70
75161;DHT22;67232;50.096;8.716;2023-03-31T00:54:19;14.00;80.50
75161;DHT22;67232;50.096;8.716;2023-03-31T00:56:49;14.10;80.60
75161;DHT22;67232;50.096;8.716;2023-03-31T00:59:21;13.80;81.30
75161;DHT22;67232;50.096;8.716;2023-03-31T01:01:52;14.00;81.10
75161;DHT22;67232;50.096;8.716;2023-03-31T01:04:23;14.10;80.90
75161;DHT22;67232;50.096;8.716;2023-03-31T01:06:58;14.10;80.80
75161;DHT22;67232;50.096;8.716;2023-03-31T01:09:30;14.00;81.00
75161;DHT22;67232;50.096;8.716;2023-03-31T01:12:02;13.90;80.90
75161;DHT22;67232;50.096;8.716;2023-03-31T01:14:30;14.00;81.10
75161;DHT22;67232;50.096;8.716;2023-03-31T01:16:58;14.10;80.80
75161;DHT22;67232;50.096;8.716;2023-03-31T01:22:07;13.80;80.90
75161;DHT22;67232;50.096;8.716;2023-03-31T01:27:43;13.60;81.50
75161;DHT22;67232;50.096;8.716;2023-03-31T01:35:29;13.60;81.50
75161;DHT22;67232;50.096;8.716;2023-03-31T01:38:39;13.60;81.40
75161;DHT22;67232;50.096;8.716;2023-03-31T01:47:05;14.00;80.70
75161;DHT22;67232;50.096;8.716;2023-03-31T01:49:49;13.90;80.80
75161;DHT22;67232;50.096;8.716;2023-03-31T01:52:18;13.90;80.80
75161;DHT22;67232;50.096;8.716;2023-03-31T01:54:54;14.00;80.60
75161;DHT22;67232;50.096;8.716;2023-03-31T01:57:34;13.90;80.50
75161;DHT22;67232;50.096;8.716;2023-03-31T02:00:08;13.90;80.70
75161;DHT22;67232;50.096;8.716;2023-03-31T02:02:48;13.80;80.80
75161;DHT22;67232;50.096;8.716;2023-03-31T02:05:22;13.70;80.90
75161;DHT22;67232;50.096;8.716;2023-03-31T02:08:07;13.60;81.20
75161;DHT22;67232;50.096;8.716;2023-03-31T02:10:34;13.50;81.20
75161;DHT22;67232;50.096;8.716;2023-03-31T02:13:06;13.60;81.30
75161;DHT22;67232;50.096;8.716;2023-03-31T02:15:37;13.30;81.70
75161;DHT22;67232;50.096;8.716;2023-03-31T02:18:05;13.10;82.20
75161;DHT22;67232;50.096;8.716;2023-03-31T02:20:38;13.10;82.20
75161;DHT22;67232;50.096;8.716;2023-03-31T02:23:10;13.20;82.00
75161;DHT22;67232;50.096;8.716;2023-03-31T02:26:04;12.90;82.50
75161;DHT22;67232;50.096;8.716;2023-03-31T02:28:34;12.90;82.40
75161;DHT22;67232;50.096;8.716;2023-03-31T02:31:09;12.90;82.40
75161;DHT22;67232;50.096;8.716;2023-03-31T02:33:35;12.90;82.50
75161;DHT22;67232;50.096;8.716;2023-03-31T02:36:01;13.00;82.30
75161;DHT22;67232;50.096;8.716;2023-03-31T02:38:27;12.90;82.30
75161;DHT22;67232;50.096;8.716;2023-03-31T02:40:58;12.70;82.90
75161;DHT22;67232;50.096;8.716;2023-03-31T02:43:24;12.80;82.70
75161;DHT22;67232;50.096;8.716;2023-03-31T02:45:50;12.90;82.60
75161;DHT22;67232;50.096;8.716;2023-03-31T02:48:31;12.80;82.50
75161;DHT22;67232;50.096;8.716;2023-03-31T02:56:51;12.70;83.00
75161;DHT22;67232;50.096;8.716;2023-03-31T02:59:40;12.70;83.20
75161;DHT22;67232;50.096;8.716;2023-03-31T03:05:15;12.70;83.80
75161;DHT22;67232;50.096;8.716;2023-03-31T03:07:48;12.60;84.20
75161;DHT22;67232;50.096;8.716;2023-03-31T03:10:19;12.60;83.70
75161;DHT22;67232;50.096;8.716;2023-03-31T03:13:01;12.60;84.00
75161;DHT22;67232;50.096;8.716;2023-03-31T03:15:39;12.70;82.60
75161;DHT22;67232;50.096;8.716;2023-03-31T03:18:08;12.70;83.10
75161;DHT22;67232;50.096;8.716;2023-03-31T03:20:36;12.80;82.50
75161;DHT22;67232;50.096;8.716;2023-03-31T03:23:03;12.80;82.00
75161;DHT22;67232;50.096;8.716;2023-03-31T03:25:29;12.70;82.50
75161;DHT22;67232;50.096;8.716;2023-03-31T03:27:55;12.70;82.60
75161;DHT22;67232;50.096;8.716;2023-03-31T03:30:22;12.70;82.80
75161;DHT22;67232;50.096;8.716;2023-03-31T03:32:48;12.80;82.90
75161;DHT22;67232;50.096;8.716;2023-03-31T03:35:16;12.80;83.00
75161;DHT22;67232;50.096;8.716;2023-03-31T03:37:44;12.80;83.00
75161;DHT22;67232;50.096;8.716;2023-03-31T03:40:13;12.80;83.20
75161;DHT22;67232;50.096;8.716;2023-03-31T03:42:41;12.80;83.00
75161;DHT22;67232;50.096;8.716;2023-03-31T03:45:07;12.70;83.00
75161;DHT22;67232;50.096;8.716;2023-03-31T03:47:38;12.80;83.10
75161;DHT22;67232;50.096;8.716;2023-03-31T03:50:04;12.70;83.40
75161;DHT22;67232;50.096;8.716;2023-03-31T03:52:34;12.80;83.50
75161;DHT22;67232;50.096;8.716;2023-03-31T03:55:02;12.80;83.30
75161;DHT22;67232;50.096;8.716;2023-03-31T03:57:28;12.90;83.20
75161;DHT22;67232;50.096;8.716;2023-03-31T03:59:56;12.90;83.20
75161;DHT22;67232;50.096;8.716;2023-03-31T04:02:23;13.00;83.20
75161;DHT22;67232;50.096;8.716;2023-03-31T04:04:49;13.00;82.90
75161;DHT22;67232;50.096;8.716;2023-03-31T04:07:19;12.90;83.00
75161;DHT22;67232;50.096;8.716;2023-03-31T04:09:45;12.80;83.10
75161;DHT22;67232;50.096;8.716;2023-03-31T04:12:10;12.90;83.20
75161;DHT22;67232;50.096;8.716;2023-03-31T04:14:36;12.90;83.00
75161;DHT22;67232;50.096;8.716;2023-03-31T04:17:04;12.90;83.10
75161;DHT22;67232;50.096;8.716;2023-03-31T04:19:31;12.80;83.10
75161;DHT22;67232;50.096;8.716;2023-03-31T04:21:59;12.80;83.10
75161;DHT22;67232;50.096;8.716;2023-03-31T04:24:27;12.70;83.60
75161;DHT22;67232;50.096;8.716;2023-03-31T04:26:58;12.70;83.20
75161;DHT22;67232;50.096;8.716;2023-03-31T04:29:24;12.60;83.70
75161;DHT22;67232;50.096;8.716;2023-03-31T04:31:55;12.70;83.10
75161;DHT22;67232;50.096;8.716;2023-03-31T04:34:28;12.80;83.30
75161;DHT22;67232;50.096;8.716;2023-03-31T04:37:01;12.60;84.40
75161;DHT22;67232;50.096;8.716;2023-03-31T04:39:29;12.70;83.70
75161;DHT22;67232;50.096;8.716;2023-03-31T04:41:56;12.60;84.30
75161;DHT22;67232;50.096;8.716;2023-03-31T04:44:23;12.80;83.40
75161;DHT22;67232;50.096;8.716;2023-03-31T04:46:48;12.90;83.30
75161;DHT22;67232;50.096;8.716;2023-03-31T04:49:14;13.00;82.80
75161;DHT22;67232;50.096;8.716;2023-03-31T04:51:44;13.10;82.60
75161;DHT22;67232;50.096;8.716;2023-03-31T04:54:10;13.20;82.60
75161;DHT22;67232;50.096;8.716;2023-03-31T04:56:35;13.10;82.50
75161;DHT22;67232;50.096;8.716;2023-03-31T04:59:01;13.30;82.50
75161;DHT22;67232;50.096;8.716;2023-03-31T05:01:31;13.30;82.40
75161;DHT22;67232;50.096;8.716;2023-03-31T05:04:03;13.30;82.20
75161;DHT22;67232;50.096;8.716;2023-03-31T05:06:31;13.10;82.70
75161;DHT22;67232;50.096;8.716;2023-03-31T05:09:00;13.30;82.20
75161;DHT22;67232;50.096;8.716;2023-03-31T05:11:25;13.30;82.40
75161;DHT22;67232;50.096;8.716;2023-03-31T05:13:54;13.00;82.90
75161;DHT22;67232;50.096;8.716;2023-03-31T05:16:19;13.00;82.70
75161;DHT22;67232;50.096;8.716;2023-03-31T05:18:48;13.00;82.80
75161;DHT22;67232;50.096;8.716;2023-03-31T05:21:15;12.80;83.30
75161;DHT22;67232;50.096;8.716;2023-03-31T05:23:45;12.80;82.90
75161;DHT22;67232;50.096;8.716;2023-03-31T05:26:11;12.90;82.80
75161;DHT22;67232;50.096;8.716;2023-03-31T05:28:38;12.80;82.80
75161;DHT22;67232;50.096;8.716;2023-03-31T05:31:05;12.80;82.70
75161;DHT22;67232;50.096;8.716;2023-03-31T05:33:31;12.80;83.00
75161;DHT22;67232;50.096;8.716;2023-03-31T05:35:59;12.60;83.90
75161;DHT22;67232;50.096;8.716;2023-03-31T05:38:26;12.60;84.40
75161;DHT22;67232;50.096;8.716;2023-03-31T05:40:55;12.60;84.10
75161;DHT22;67232;50.096;8.716;2023-03-31T05:43:23;12.80;83.40
75161;DHT22;67232;50.096;8.716;2023-03-31T05:45:49;12.70;83.60
75161;DHT22;67232;50.096;8.716;2023-03-31T05:48:17;12.60;84.20
75161;DHT22;67232;50.096;8.716;2023-03-31T05:50:42;12.60;84.40
75161;DHT22;67232;50.096;8.716;2023-03-31T05:53:10;12.80;83.50
75161;DHT22;67232;50.096;8.716;2023-03-31T05:55:37;12.80;83.50
75161;DHT22;67232;50.096;8.716;2023-03-31T05:58:02;12.80;83.50
75161;DHT22;67232;50.096;8.716;2023-03-31T06:00:28;13.00;83.50
75161;DHT22;67232;50.096;8.716;2023-03-31T06:02:58;12.80;83.50
75161;DHT22;67232;50.096;8.716;2023-03-31T06:05:25;12.60;84.20
75161;DHT22;67232;50.096;8.716;2023-03-31T06:08:00;12.80;84.00
75161;DHT22;67232;50.096;8.716;2023-03-31T06:10:25;12.80;83.90
75161;DHT22;67232;50.096;8.716;2023-03-31T06:12:52;12.80;83.90
75161;DHT22;67232;50.096;8.716;2023-03-31T06:15:20;12.70;84.00
75161;DHT22;67232;50.096;8.716;2023-03-31T06:17:48;12.70;84.20
75161;DHT22;67232;50.096;8.716;2023-03-31T06:20:16;12.70;84.10
75161;DHT22;67232;50.096;8.716;2023-03-31T06:22:41;12.90;84.10
75161;DHT22;67232;50.096;8.716;2023-03-31T06:25:12;12.80;84.20
75161;DHT22;67232;50.096;8.716;2023-03-31T06:27:37;12.70;84.20
75161;DHT22;67232;50.096;8.716;2023-03-31T06:30:06;12.80;84.20
75161;DHT22;67232;50.096;8.716;2023-03-31T06:32:32;12.90;84.00
75161;DHT22;67232;50.096;8.716;2023-03-31T06:34:57;12.80;84.20
75161;DHT22;67232;50.096;8.716;2023-03-31T06:37:23;12.70;84.10
75161;DHT22;67232;50.096;8.716;2023-03-31T06:39:48;12.70;84.50
75161;DHT22;67232;50.096;8.716;2023-03-31T06:42:16;12.60;84.90
75161;DHT22;67232;50.096;8.716;2023-03-31T06:44:42;12.90;84.20
75161;DHT22;67232;50.096;8.716;2023-03-31T06:47:07;12.90;83.40
75161;DHT22;67232;50.096;8.716;2023-03-31T06:49:33;12.80;84.20
75161;DHT22;67232;50.096;8.716;2023-03-31T06:51:58;12.70;84.40
75161;DHT22;67232;50.096;8.716;2023-03-31T06:54:30;12.60;85.20
75161;DHT22;67232;50.096;8.716;2023-03-31T06:56:56;12.50;85.30
75161;DHT22;67232;50.096;8.716;2023-03-31T06:59:24;12.70;84.80
75161;DHT22;67232;50.096;8.716;2023-03-31T07:01:52;12.50;85.40
75161;DHT22;67232;50.096;8.716;2023-03-31T07:04:18;12.50;85.40
75161;DHT22;67232;50.096;8.716;2023-03-31T07:06:48;12.60;85.20
75161;DHT22;67232;50.096;8.716;2023-03-31T07:09:15;12.60;85.20
75161;DHT22;67232;50.096;8.716;2023-03-31T07:11:42;12.70;84.60
75161;DHT22;67232;50.096;8.716;2023-03-31T07:14:08;12.80;84.50
75161;DHT22;67232;50.096;8.716;2023-03-31T07:16:34;12.90;84.40
75161;DHT22;67232;50.096;8.716;2023-03-31T07:19:00;12.90;84.30
75161;DHT22;67232;50.096;8.716;2023-03-31T07:21:28;12.90;84.20
75161;DHT22;67232;50.096;8.716;2023-03-31T07:23:54;12.70;84.50
75161;DHT22;67232;50.096;8.716;2023-03-31T07:26:19;12.70;84.90
75161;DHT22;67232;50.096;8.716;2023-03-31T07:28:45;12.70;84.70
75161;DHT22;67232;50.096;8.716;2023-03-31T07:31:14;12.80;84.60
75161;DHT22;67232;50.096;8.716;2023-03-31T07:33:40;12.90;84.40
75161;DHT22;67232;50.096;8.716;2023-03-31T07:36:06;12.80;84.60
75161;DHT22;67232;50.096;8.716;2023-03-31T07:38:32;12.90;84.60
75161;DHT22;67232;50.096;8.716;2023-03-31T07:40:58;12.70;85.10
75161;DHT22;67232;50.096;8.716;2023-03-31T07:43:24;12.50;85.70
75161;DHT22;67232;50.096;8.716;2023-03-31T07:45:49;12.50;86.40
75161;DHT22;67232;50.096;8.716;2023-03-31T07:48:15;12.50;86.30
75161;DHT22;67232;50.096;8.716;2023-03-31T07:50:40;12.40;87.20
75161;DHT22;67232;50.096;8.716;2023-03-31T07:53:09;12.60;86.60
75161;DHT22;67232;50.096;8.716;2023-03-31T07:55:35;12.30;86.90
75161;DHT22;67232;50.096;8.716;2023-03-31T07:58:00;12.30;87.00
75161;DHT22;67232;50.096;8.716;2023-03-31T08:00:26;12.40;86.80
75161;DHT22;67232;50.096;8.716;2023-03-31T08:02:52;12.20;86.70
75161;DHT22;67232;50.096;8.716;2023-03-31T08:05:18;12.50;86.90
75161;DHT22;67232;50.096;8.716;2023-03-31T08:07:48;12.80;85.50
75161;DHT22;67232;50.096;8.716;2023-03-31T08:10:20;12.80;85.40
75161;DHT22;67232;50.096;8.716;2023-03-31T08:12:48;13.10;85.30
75161;DHT22;67232;50.096;8.716;2023-03-31T08:15:14;13.10;84.80
75161;DHT22;67232;50.096;8.716;2023-03-31T08:17:41;13.10;85.00
75161;DHT22;67232;50.096;8.716;2023-03-31T08:20:07;13.10;85.30
75161;DHT22;67232;50.096;8.716;2023-03-31T08:22:36;13.20;85.10
75161;DHT22;67232;50.096;8.716;2023-03-31T08:25:05;13.10;85.20
75161;DHT22;67232;50.096;8.716;2023-03-31T08:27:38;13.20;85.10
75161;DHT22;67232;50.096;8.716;2023-03-31T08:30:06;13.20;85.20
75161;DHT22;67232;50.096;8.716;2023-03-31T08:32:33;13.30;85.00
75161;DHT22;67232;50.096;8.716;2023-03-31T08:34:59;13.40;85.30
75161;DHT22;67232;50.096;8.716;2023-03-31T08:37:28;13.80;85.20
75161;DHT22;67232;50.096;8.716;2023-03-31T08:39:56;14.50;84.50
75161;DHT22;67232;50.096;8.716;2023-03-31T08:42:41;14.90;83.20
75161;DHT22;67232;50.096;8.716;2023-03-31T08:47:58;14.80;82.90
75161;DHT22;67232;50.096;8.716;2023-03-31T08:50:27;14.30;83.20
75161;DHT22;67232;50.096;8.716;2023-03-31T08:53:25;13.90;83.90
75161;DHT22;67232;50.096;8.716;2023-03-31T08:55:54;13.80;84.10
75161;DHT22;67232;50.096;8.716;2023-03-31T08:58:43;13.80;83.90
75161;DHT22;67232;50.096;8.716;2023-03-31T09:10:25;13.60;84.60
75161;DHT22;67232;50.096;8.716;2023-03-31T09:15:44;13.90;83.90
75161;DHT22;67232;50.096;8.716;2023-03-31T09:18:33;14.20;83.30
75161;DHT22;67232;50.096;8.716;2023-03-31T09:21:44;14.70;83.90
75161;DHT22;67232;50.096;8.716;2023-03-31T09:26:45;15.80;80.40
75161;DHT22;67232;50.096;8.716;2023-03-31T09:29:51;15.90;79.10
75161;DHT22;67232;50.096;8.716;2023-03-31T09:34:46;15.10;80.40
75161;DHT22;67232;50.096;8.716;2023-03-31T09:37:14;14.80;81.10
75161;DHT22;67232;50.096;8.716;2023-03-31T09:39:40;14.70;81.00
75161;DHT22;67232;50.096;8.716;2023-03-31T09:42:11;14.90;81.60
75161;DHT22;67232;50.096;8.716;2023-03-31T09:44:39;15.50;79.70
75161;DHT22;67232;50.096;8.716;2023-03-31T09:47:20;15.80;78.10
75161;DHT22;67232;50.096;8.716;2023-03-31T09:49:52;16.40;77.10
75161;DHT22;67232;50.096;8.716;2023-03-31T09:52:30;16.40;76.10
75161;DHT22;67232;50.096;8.716;2023-03-31T09:54:59;16.90;76.00
75161;DHT22;67232;50.096;8.716;2023-03-31T09:57:31;17.40;74.70
75161;DHT22;67232;50.096;8.716;2023-03-31T10:02:43;18.00;73.00
75161;DHT22;67232;50.096;8.716;2023-03-31T10:05:25;18.20;69.30
75161;DHT22;67232;50.096;8.716;2023-03-31T10:11:14;16.70;73.60
75161;DHT22;67232;50.096;8.716;2023-03-31T10:14:01;16.40;73.50
75161;DHT22;67232;50.096;8.716;2023-03-31T10:16:34;16.00;75.40
75161;DHT22;67232;50.096;8.716;2023-03-31T10:21:55;15.30;78.60
75161;DHT22;67232;50.096;8.716;2023-03-31T10:24:22;15.00;79.30
75161;DHT22;67232;50.096;8.716;2023-03-31T10:26:56;15.00;80.40
75161;DHT22;67232;50.096;8.716;2023-03-31T10:29:28;14.90;80.20
75161;DHT22;67232;50.096;8.716;2023-03-31T10:31:54;14.30;81.30
75161;DHT22;67232;50.096;8.716;2023-03-31T10:34:21;14.00;82.20
75161;DHT22;67232;50.096;8.716;2023-03-31T10:36:50;13.90;82.90
75161;DHT22;67232;50.096;8.716;2023-03-31T10:39:17;14.00;82.80
75161;DHT22;67232;50.096;8.716;2023-03-31T10:41:49;14.00;83.20
75161;DHT22;67232;50.096;8.716;2023-03-31T10:44:33;13.30;81.00
75161;DHT22;67232;50.096;8.716;2023-03-31T10:47:17;12.90;80.40
75161;DHT22;67232;50.096;8.716;2023-03-31T10:49:44;12.50;82.20
75161;DHT22;67232;50.096;8.716;2023-03-31T10:52:23;12.20;82.70
75161;DHT22;67232;50.096;8.716;2023-03-31T10:54:56;12.00;82.00
75161;DHT22;67232;50.096;8.716;2023-03-31T10:57:38;12.10;82.20
75161;DHT22;67232;50.096;8.716;2023-03-31T11:00:28;12.20;82.30
75161;DHT22;67232;50.096;8.716;2023-03-31T11:05:49;12.80;81.60
75161;DHT22;67232;50.096;8.716;2023-03-31T11:08:25;13.20;81.20
75161;DHT22;67232;50.096;8.716;2023-03-31T11:19:49;14.10;79.80
75161;DHT22;67232;50.096;8.716;2023-03-31T11:42:22;22.40;59.30
75161;DHT22;67232;50.096;8.716;2023-03-31T11:44:57;22.00;61.40
75161;DHT22;67232;50.096;8.716;2023-03-31T11:47:27;21.90;62.60
75161;DHT22;67232;50.096;8.716;2023-03-31T11:50:21;21.60;61.30
75161;DHT22;67232;50.096;8.716;2023-03-31T11:53:05;20.60;65.50
75161;DHT22;67232;50.096;8.716;2023-03-31T11:55:32;20.30;66.50
75161;DHT22;67232;50.096;8.716;2023-03-31T11:58:06;19.70;67.60
75161;DHT22;67232;50.096;8.716;2023-03-31T12:00:47;18.30;67.60
75161;DHT22;67232;50.096;8.716;2023-03-31T12:03:39;17.40;73.80
75161;DHT22;67232;50.096;8.716;2023-03-31T12:06:20;18.10;73.20
75161;DHT22;67232;50.096;8.716;2023-03-31T12:09:20;18.10;72.10
75161;DHT22;67232;50.096;8.716;2023-03-31T12:12:09;17.60;74.30
75161;DHT22;67232;50.096;8.716;2023-03-31T12:14:42;17.30;74.30
75161;DHT22;67232;50.096;8.716;2023-03-31T12:17:19;16.70;74.00
75161;DHT22;67232;50.096;8.716;2023-03-31T12:19:51;16.10;75.00
75161;DHT22;67232;50.096;8.716;2023-03-31T12:22:25;15.80;77.30
75161;DHT22;67232;50.096;8.716;2023-03-31T12:24:54;15.50;76.50
75161;DHT22;67232;50.096;8.716;2023-03-31T12:27:26;16.00;77.40
75161;DHT22;67232;50.096;8.716;2023-03-31T12:30:03;15.80;78.20
75161;DHT22;67232;50.096;8.716;2023-03-31T12:32:37;16.00;78.80
75161;DHT22;67232;50.096;8.716;2023-03-31T12:35:13;16.30;78.30
75161;DHT22;67232;50.096;8.716;2023-03-31T12:59:42;14.20;77.90
75161;DHT22;67232;50.096;8.716;2023-03-31T13:04:42;14.30;80.50
75161;DHT22;67232;50.096;8.716;2023-03-31T13:10:01;14.40;80.20
75161;DHT22;67232;50.096;8.716;2023-03-31T13:13:12;14.50;79.80
75161;DHT22;67232;50.096;8.716;2023-03-31T13:15:39;14.30;79.80
75161;DHT22;67232;50.096;8.716;2023-03-31T13:18:05;14.40;80.80
75161;DHT22;67232;50.096;8.716;2023-03-31T13:23:21;14.90;80.80
75161;DHT22;67232;50.096;8.716;2023-03-31T13:26:00;15.10;80.50
75161;DHT22;67232;50.096;8.716;2023-03-31T13:28:44;15.10;79.90
75161;DHT22;67232;50.096;8.716;2023-03-31T13:31:13;15.00;79.40
75161;DHT22;67232;50.096;8.716;2023-03-31T13:33:46;15.20;80.10
75161;DHT22;67232;50.096;8.716;2023-03-31T13:36:22;15.30;78.90
75161;DHT22;67232;50.096;8.716;2023-03-31T13:47:39;15.20;77.30
75161;DHT22;67232;50.096;8.716;2023-03-31T13:50:20;15.00;76.10
75161;DHT22;67232;50.096;8.716;2023-03-31T13:55:53;14.80;75.50
75161;DHT22;67232;50.096;8.716;2023-03-31T14:01:20;14.70;73.60
75161;DHT22;67232;50.096;8.716;2023-03-31T14:06:49;14.60;74.30
75161;DHT22;67232;50.096;8.716;2023-03-31T14:09:32;14.80;73.60
75161;DHT22;67232;50.096;8.716;2023-03-31T14:12:34;15.10;71.00
75161;DHT22;67232;50.096;8.716;2023-03-31T14:15:00;14.80;71.10
75161;DHT22;67232;50.096;8.716;2023-03-31T14:17:32;14.90;72.20
75161;DHT22;67232;50.096;8.716;2023-03-31T14:31:11;15.10;71.50
75161;DHT22;67232;50.096;8.716;2023-03-31T14:36:22;15.10;71.20
75161;DHT22;67232;50.096;8.716;2023-03-31T14:39:04;15.00;71.10
75161;DHT22;67232;50.096;8.716;2023-03-31T14:41:31;15.00;72.30
75161;DHT22;67232;50.096;8.716;2023-03-31T14:44:06;14.90;71.90
75161;DHT22;67232;50.096;8.716;2023-03-31T14:46:36;14.80;72.50
75161;DHT22;67232;50.096;8.716;2023-03-31T14:49:25;14.80;72.90
75161;DHT22;67232;50.096;8.716;2023-03-31T14:52:00;15.00;73.60
75161;DHT22;67232;50.096;8.716;2023-03-31T14:54:32;14.90;72.10
75161;DHT22;67232;50.096;8.716;2023-03-31T14:56:59;14.90;73.30
75161;DHT22;67232;50.096;8.716;2023-03-31T14:59:30;14.90;73.50
75161;DHT22;67232;50.096;8.716;2023-03-31T15:01:59;14.90;72.90
75161;DHT22;67232;50.096;8.716;2023-03-31T15:04:29;14.90;72.40
75161;DHT22;67232;50.096;8.716;2023-03-31T15:06:58;14.80;73.10
75161;DHT22;67232;50.096;8.716;2023-03-31T15:09:29;14.70;73.60
75161;DHT22;67232;50.096;8.716;2023-03-31T15:12:03;14.80;73.90
75161;DHT22;67232;50.096;8.716;2023-03-31T15:14:34;14.90;74.60
75161;DHT22;67232;50.096;8.716;2023-03-31T15:17:05;14.80;76.60
75161;DHT22;67232;50.096;8.716;2023-03-31T15:19:34;14.80;77.00
75161;DHT22;67232;50.096;8.716;2023-03-31T15:22:18;14.70;78.20
75161;DHT22;67232;50.096;8.716;2023-03-31T15:24:46;14.50;79.80
75161;DHT22;67232;50.096;8.716;2023-03-31T15:27:47;14.30;80.40
75161;DHT22;67232;50.096;8.716;2023-03-31T15:30:20;14.00;80.40
75161;DHT22;67232;50.096;8.716;2023-03-31T15:32:47;13.60;80.60
75161;DHT22;67232;50.096;8.716;2023-03-31T15:35:21;13.30;81.50
75161;DHT22;67232;50.096;8.716;2023-03-31T15:37:50;13.40;81.10
75161;DHT22;67232;50.096;8.716;2023-03-31T15:43:13;13.40;81.60
75161;DHT22;67232;50.096;8.716;2023-03-31T15:46:04;13.60;81.60
75161;DHT22;67232;50.096;8.716;2023-03-31T15:48:35;13.50;81.50
75161;DHT22;67232;50.096;8.716;2023-03-31T15:51:05;13.40;81.70
75161;DHT22;67232;50.096;8.716;2023-03-31T15:53:43;13.60;81.10
75161;DHT22;67232;50.096;8.716;2023-03-31T15:58:58;13.80;81.10
75161;DHT22;67232;50.096;8.716;2023-03-31T16:01:33;13.80;81.10
75161;DHT22;67232;50.096;8.716;2023-03-31T16:04:07;13.70;81.70
75161;DHT22;67232;50.096;8.716;2023-03-31T16:06:39;13.90;81.20
75161;DHT22;67232;50.096;8.716;2023-03-31T16:09:15;14.10;80.70
75161;DHT22;67232;50.096;8.716;2023-03-31T16:11:52;14.00;80.50
75161;DHT22;67232;50.096;8.716;2023-03-31T16:14:19;14.10;80.50
75161;DHT22;67232;50.096;8.716;2023-03-31T16:16:49;14.00;80.80
75161;DHT22;67232;50.096;8.716;2023-03-31T16:19:23;13.90;81.10
75161;DHT22;67232;50.096;8.716;2023-03-31T16:21:50;14.00;81.20
75161;DHT22;67232;50.096;8.716;2023-03-31T16:24:20;13.90;81.10
75161;DHT22;67232;50.096;8.716;2023-03-31T16:26:59;13.90;81.10
75161;DHT22;67232;50.096;8.716;2023-03-31T16:29:25;13.60;81.10
75161;DHT22;67232;50.096;8.716;2023-03-31T16:32:07;13.50;81.40
75161;DHT22;67232;50.096;8.716;2023-03-31T16:34:33;13.60;80.70
75161;DHT22;67232;50.096;8.716;2023-03-31T16:36:58;13.80;81.00
75161;DHT22;67232;50.096;8.716;2023-03-31T16:39:26;13.70;80.30
75161;DHT22;67232;50.096;8.716;2023-03-31T16:41:52;13.60;80.60
75161;DHT22;67232;50.096;8.716;2023-03-31T16:44:20;13.50;81.00
75161;DHT22;67232;50.096;8.716;2023-03-31T16:46:46;13.20;81.20
75161;DHT22;67232;50.096;8.716;2023-03-31T16:49:13;13.30;81.80
75161;DHT22;67232;50.096;8.716;2023-03-31T16:51:39;13.20;82.10
75161;DHT22;67232;50.096;8.716;2023-03-31T16:54:04;13.30;81.50
75161;DHT22;67232;50.096;8.716;2023-03-31T16:56:30;13.20;81.70
75161;DHT22;67232;50.096;8.716;2023-03-31T16:58:56;13.20;82.00
75161;DHT22;67232;50.096;8.716;2023-03-31T17:01:22;13.10;82.10
75161;DHT22;67232;50.096;8.716;2023-03-31T17:03:47;13.00;82.10
75161;DHT22;67232;50.096;8.716;2023-03-31T17:06:13;13.10;82.60
75161;DHT22;67232;50.096;8.716;2023-03-31T17:08:39;13.00;82.50
75161;DHT22;67232;50.096;8.716;2023-03-31T17:11:09;13.10;82.50
75161;DHT22;67232;50.096;8.716;2023-03-31T17:13:39;13.10;82.60
75161;DHT22;67232;50.096;8.716;2023-03-31T17:16:06;13.10;82.70
75161;DHT22;67232;50.096;8.716;2023-03-31T17:18:34;13.10;82.40
75161;DHT22;67232;50.096;8.716;2023-03-31T17:21:10;13.20;82.40
75161;DHT22;67232;50.096;8.716;2023-03-31T17:23:37;13.00;83.00
75161;DHT22;67232;50.096;8.716;2023-03-31T17:26:04;13.00;83.10
75161;DHT22;67232;50.096;8.716;2023-03-31T17:28:31;13.20;82.80
75161;DHT22;67232;50.096;8.716;2023-03-31T17:31:01;13.00;82.90
75161;DHT22;67232;50.096;8.716;2023-03-31T17:33:36;12.90;83.00
75161;DHT22;67232;50.096;8.716;2023-03-31T17:36:05;12.90;83.40
75161;DHT22;67232;50.096;8.716;2023-03-31T17:38:32;13.00;83.20
75161;DHT22;67232;50.096;8.716;2023-03-31T17:41:08;13.10;82.80
75161;DHT22;67232;50.096;8.716;2023-03-31T17:43:39;13.00;82.70
75161;DHT22;67232;50.096;8.716;2023-03-31T17:46:08;12.90;82.70
75161;DHT22;67232;50.096;8.716;2023-03-31T17:48:37;12.90;82.70
75161;DHT22;67232;50.096;8.716;2023-03-31T17:51:07;13.00;82.50
75161;DHT22;67232;50.096;8.716;2023-03-31T17:53:34;12.90;83.30
75161;DHT22;67232;50.096;8.716;2023-03-31T17:56:03;13.10;82.50
75161;DHT22;67232;50.096;8.716;2023-03-31T17:58:29;13.00;82.70
75161;DHT22;67232;50.096;8.716;2023-03-31T18:00:55;12.80;82.80
75161;DHT22;67232;50.096;8.716;2023-03-31T18:03:23;12.90;83.00
75161;DHT22;67232;50.096;8.716;2023-03-31T18:05:49;12.80;83.60
75161;DHT22;67232;50.096;8.716;2023-03-31T18:08:17;12.90;83.50
75161;DHT22;67232;50.096;8.716;2023-03-31T18:10:45;13.00;83.30
75161;DHT22;67232;50.096;8.716;2023-03-31T18:13:16;13.00;82.70
75161;DHT22;67232;50.096;8.716;2023-03-31T18:15:47;13.00;83.00
75161;DHT22;67232;50.096;8.716;2023-03-31T18:18:17;12.80;83.80
75161;DHT22;67232;50.096;8.716;2023-03-31T18:20:43;12.90;83.10
75161;DHT22;67232;50.096;8.716;2023-03-31T18:23:10;12.80;83.30
75161;DHT22;67232;50.096;8.716;2023-03-31T18:25:36;12.80;83.40
75161;DHT22;67232;50.096;8.716;2023-03-31T18:28:02;12.70;83.40
75161;DHT22;67232;50.096;8.716;2023-03-31T18:30:28;12.70;83.70
75161;DHT22;67232;50.096;8.716;2023-03-31T18:32:53;12.70;83.90